createdAt,value
2017-08-09T00:00:58.798Z,1007.27
2017-08-09T00:01:58.819Z,1007.29
2017-08-09T00:02:58.849Z,1007.3
2017-08-09T00:04:58.899Z,1007.33
2017-08-09T00:05:58.923Z,1007.35
2017-08-09T00:06:58.953Z,1007.37
2017-08-09T00:07:58.978Z,1007.39
2017-08-09T00:08:59.003Z,1007.35
2017-08-09T00:09:59.032Z,1007.33
2017-08-09T00:10:59.056Z,1007.35
2017-08-09T00:11:59.085Z,1007.31
2017-08-09T00:12:59.108Z,1007.32
2017-08-09T00:13:59.133Z,1007.28
2017-08-09T00:14:59.156Z,1007.24
2017-08-09T00:15:59.186Z,1007.27
2017-08-09T00:16:59.210Z,1007.23
2017-08-09T00:17:59.236Z,1007.29
2017-08-09T00:18:59.271Z,1007.29
2017-08-09T00:19:59.286Z,1007.31
2017-08-09T00:20:59.316Z,1007.32
2017-08-09T00:21:59.341Z,1007.31
2017-08-09T00:22:59.369Z,1007.28
2017-08-09T00:23:59.393Z,1007.26
2017-08-09T00:24:59.420Z,1007.25
2017-08-09T00:25:59.448Z,1007.28
2017-08-09T00:26:59.470Z,1007.23
2017-08-09T00:27:59.495Z,1007.25
2017-08-09T00:28:59.523Z,1007.19
2017-08-09T00:29:59.549Z,1007.22
2017-08-09T00:30:59.578Z,1007.23
2017-08-09T00:31:59.597Z,1007.22
2017-08-09T00:32:59.626Z,1007.25
2017-08-09T00:33:59.651Z,1007.28
2017-08-09T00:34:59.674Z,1007.23
2017-08-09T00:36:59.724Z,1007.18
2017-08-09T00:37:59.755Z,1007.26
2017-08-09T00:38:59.778Z,1007.35
2017-08-09T00:39:59.807Z,1007.4
2017-08-09T00:40:59.832Z,1007.48
2017-08-09T00:41:59.859Z,1007.43
2017-08-09T00:42:59.884Z,1007.44
2017-08-09T00:43:59.909Z,1007.41
2017-08-09T00:44:59.938Z,1007.45
2017-08-09T00:45:59.962Z,1007.4
2017-08-09T00:46:59.983Z,1007.44
2017-08-09T00:48:00.014Z,1007.44
2017-08-09T00:49:00.037Z,1007.47
2017-08-09T00:50:00.066Z,1007.4
2017-08-09T00:51:00.092Z,1007.38
2017-08-09T00:53:00.140Z,1007.38
2017-08-09T00:54:00.167Z,1007.36
2017-08-09T00:55:00.197Z,1007.36
2017-08-09T00:56:00.224Z,1007.3
2017-08-09T00:57:00.246Z,1007.3
2017-08-09T00:58:00.273Z,1007.26
2017-08-09T00:59:00.295Z,1007.3
2017-08-09T01:00:00.324Z,1007.27
2017-08-09T01:01:00.349Z,1007.28
2017-08-09T01:02:00.376Z,1007.33
2017-08-09T01:03:00.399Z,1007.32
2017-08-09T01:04:00.427Z,1007.35
2017-08-09T01:05:00.453Z,1007.37
2017-08-09T01:06:00.480Z,1007.37
2017-08-09T01:07:00.504Z,1007.36
2017-08-09T01:09:00.559Z,1007.41
2017-08-09T01:10:00.582Z,1007.44
2017-08-09T01:11:00.610Z,1007.45
2017-08-09T01:12:00.634Z,1007.46
2017-08-09T01:13:00.683Z,1007.44
2017-08-09T01:14:00.686Z,1007.46
2017-08-09T01:15:00.713Z,1007.45
2017-08-09T01:16:00.739Z,1007.44
2017-08-09T01:17:00.762Z,1007.46
2017-08-09T01:18:00.788Z,1007.48
2017-08-09T01:19:00.813Z,1007.53
2017-08-09T01:20:00.840Z,1007.54
2017-08-09T01:21:00.866Z,1007.55
2017-08-09T01:22:00.894Z,1007.6
2017-08-09T01:23:00.918Z,1007.6
2017-08-09T01:25:00.971Z,1007.67
2017-08-09T01:26:00.998Z,1007.7
2017-08-09T01:27:01.020Z,1007.65
2017-08-09T01:28:01.051Z,1007.69
2017-08-09T01:29:01.075Z,1007.73
2017-08-09T01:30:01.096Z,1007.73
2017-08-09T01:31:01.124Z,1007.75
2017-08-09T01:32:01.153Z,1007.86
2017-08-09T01:33:01.178Z,1007.85
2017-08-09T01:34:01.203Z,1007.93
2017-08-09T01:35:01.231Z,1007.97
2017-08-09T01:36:01.253Z,1007.98
2017-08-09T01:37:01.281Z,1008.02
2017-08-09T01:38:01.306Z,1008.04
2017-08-09T01:40:01.361Z,1008.1
2017-08-09T01:41:01.390Z,1008.13
2017-08-09T01:42:01.408Z,1008.14
2017-08-09T01:43:01.435Z,1008.17
2017-08-09T01:44:01.464Z,1008.11
2017-08-09T01:45:01.492Z,1008.15
2017-08-09T01:46:01.513Z,1008.17
2017-08-09T01:47:01.537Z,1008.14
2017-08-09T01:48:01.566Z,1008.14
2017-08-09T01:49:01.587Z,1008.13
2017-08-09T01:50:01.615Z,1008.09
2017-08-09T01:51:01.643Z,1008.11
2017-08-09T01:52:01.668Z,1008.1
2017-08-09T01:53:01.695Z,1008.08
2017-08-09T01:54:01.720Z,1008.07
2017-08-09T01:55:01.747Z,1008.09
2017-08-09T01:56:01.772Z,1008.07
2017-08-09T01:57:01.797Z,1008.11
2017-08-09T01:58:01.825Z,1008.18
2017-08-09T01:59:01.850Z,1008.17
2017-08-09T02:00:01.873Z,1008.2
2017-08-09T02:01:01.898Z,1008.23
2017-08-09T02:02:01.930Z,1008.21
2017-08-09T02:03:01.952Z,1008.26
2017-08-09T02:04:01.974Z,1008.24
2017-08-09T02:05:02.004Z,1008.23
2017-08-09T02:06:02.030Z,1008.24
2017-08-09T02:07:02.053Z,1008.26
2017-08-09T02:08:02.081Z,1008.26
2017-08-09T02:09:02.108Z,1008.24
2017-08-09T02:10:02.132Z,1008.29
2017-08-09T02:12:02.180Z,1008.24
2017-08-09T02:13:02.208Z,1008.27
2017-08-09T02:14:02.238Z,1008.36
2017-08-09T02:15:02.261Z,1008.35
2017-08-09T02:16:02.283Z,1008.34
2017-08-09T02:17:02.315Z,1008.39
2017-08-09T02:18:02.336Z,1008.37
2017-08-09T02:19:02.366Z,1008.33
2017-08-09T02:20:02.390Z,1008.25
2017-08-09T02:21:02.415Z,1008.28
2017-08-09T02:22:02.441Z,1008.23
2017-08-09T02:23:02.466Z,1008.3
2017-08-09T02:24:02.493Z,1008.29
2017-08-09T02:25:02.516Z,1008.32
2017-08-09T02:26:02.542Z,1008.33
2017-08-09T02:28:02.595Z,1008.31
2017-08-09T02:29:02.621Z,1008.27
2017-08-09T02:30:02.646Z,1008.27
2017-08-09T02:31:02.672Z,1008.29
2017-08-09T02:32:02.696Z,1008.33
2017-08-09T02:33:02.720Z,1008.29
2017-08-09T02:34:02.750Z,1008.32
2017-08-09T02:35:02.773Z,1008.31
2017-08-09T02:36:02.800Z,1008.31
2017-08-09T02:37:02.825Z,1008.3
2017-08-09T02:38:02.849Z,1008.33
2017-08-09T02:39:02.878Z,1008.35
2017-08-09T02:40:02.901Z,1008.33
2017-08-09T02:41:02.925Z,1008.29
2017-08-09T02:42:02.951Z,1008.27
2017-08-09T02:44:03.003Z,1008.27
2017-08-09T02:45:03.029Z,1008.25
2017-08-09T02:46:03.056Z,1008.29
2017-08-09T02:47:03.080Z,1008.3
2017-08-09T02:48:03.105Z,1008.28
2017-08-09T02:49:03.128Z,1008.22
2017-08-09T02:50:03.156Z,1008.14
2017-08-09T02:51:03.181Z,1008.14
2017-08-09T02:52:03.206Z,1008.11
2017-08-09T02:53:03.232Z,1008.1
2017-08-09T02:54:03.257Z,1008.06
2017-08-09T02:55:03.283Z,1008.03
2017-08-09T02:56:03.312Z,1008.05
2017-08-09T02:57:03.355Z,1008.06
2017-08-09T02:58:03.356Z,1008.06
2017-08-09T03:00:03.408Z,1008.09
2017-08-09T03:01:03.437Z,1008.15
2017-08-09T03:02:03.460Z,1008.2
2017-08-09T03:03:03.493Z,1008.25
2017-08-09T03:04:03.511Z,1008.31
2017-08-09T03:05:03.538Z,1008.31
2017-08-09T03:06:03.558Z,1008.4
2017-08-09T03:07:03.586Z,1008.42
2017-08-09T03:08:03.614Z,1008.48
2017-08-09T03:09:03.641Z,1008.52
2017-08-09T03:10:03.664Z,1008.46
2017-08-09T03:11:03.690Z,1008.35
2017-08-09T03:12:03.710Z,1008.31
2017-08-09T03:13:03.741Z,1008.28
2017-08-09T03:15:03.791Z,1008.3
2017-08-09T03:16:03.816Z,1008.38
2017-08-09T03:17:03.841Z,1008.41
2017-08-09T03:18:03.868Z,1008.39
2017-08-09T03:19:03.891Z,1008.44
2017-08-09T03:20:03.919Z,1008.44
2017-08-09T03:21:03.943Z,1008.48
2017-08-09T03:22:03.966Z,1008.46
2017-08-09T03:23:03.992Z,1008.5
2017-08-09T03:24:04.023Z,1008.51
2017-08-09T03:25:04.044Z,1008.51
2017-08-09T03:26:04.072Z,1008.51
2017-08-09T03:27:04.096Z,1008.56
2017-08-09T03:28:04.118Z,1008.6
2017-08-09T03:29:04.144Z,1008.59
2017-08-09T03:30:04.172Z,1008.53
2017-08-09T03:31:04.195Z,1008.52
2017-08-09T03:32:04.223Z,1008.49
2017-08-09T03:33:04.248Z,1008.4
2017-08-09T03:34:04.272Z,1008.4
2017-08-09T03:35:04.296Z,1008.45
2017-08-09T03:36:04.319Z,1008.51
2017-08-09T03:37:04.349Z,1008.52
2017-08-09T03:38:04.372Z,1008.54
2017-08-09T03:39:09.427Z,1008.51
2017-08-09T03:40:04.424Z,1008.49
2017-08-09T03:41:04.450Z,1008.53
2017-08-09T03:42:04.473Z,1008.54
2017-08-09T03:43:04.500Z,1008.56
2017-08-09T03:44:04.526Z,1008.57
2017-08-09T03:45:04.553Z,1008.59
2017-08-09T03:47:04.603Z,1008.55
2017-08-09T03:48:04.624Z,1008.57
2017-08-09T03:49:04.647Z,1008.6
2017-08-09T03:50:04.673Z,1008.58
2017-08-09T03:51:04.698Z,1008.69
2017-08-09T03:52:04.728Z,1008.72
2017-08-09T03:53:04.752Z,1008.69
2017-08-09T03:54:04.777Z,1008.69
2017-08-09T03:55:04.803Z,1008.67
2017-08-09T03:56:04.826Z,1008.68
2017-08-09T03:57:04.855Z,1008.67
2017-08-09T03:58:04.878Z,1008.64
2017-08-09T03:59:04.904Z,1008.61
2017-08-09T04:00:04.929Z,1008.61
2017-08-09T04:01:04.952Z,1008.63
2017-08-09T04:03:05.004Z,1008.57
2017-08-09T04:04:05.027Z,1008.61
2017-08-09T04:05:05.054Z,1008.6
2017-08-09T04:06:05.079Z,1008.61
2017-08-09T04:07:05.105Z,1008.66
2017-08-09T04:08:05.127Z,1008.65
2017-08-09T04:09:05.154Z,1008.66
2017-08-09T04:10:05.179Z,1008.68
2017-08-09T04:11:05.206Z,1008.68
2017-08-09T04:12:05.229Z,1008.71
2017-08-09T04:13:05.255Z,1008.74
2017-08-09T04:14:05.283Z,1008.79
2017-08-09T04:15:05.303Z,1008.82
2017-08-09T04:16:05.332Z,1008.84
2017-08-09T04:17:05.357Z,1008.84
2017-08-09T04:19:05.405Z,1008.86
2017-08-09T04:20:05.434Z,1008.99
2017-08-09T04:21:05.454Z,1008.98
2017-08-09T04:22:05.481Z,1009.02
2017-08-09T04:23:05.509Z,1008.99
2017-08-09T04:24:05.533Z,1009.01
2017-08-09T04:25:05.560Z,1009.01
2017-08-09T04:26:05.585Z,1009.04
2017-08-09T04:27:05.611Z,1009.06
2017-08-09T04:28:05.640Z,1009.05
2017-08-09T04:29:05.661Z,1009.08
2017-08-09T04:30:05.685Z,1009.05
2017-08-09T04:31:05.707Z,1009.01
2017-08-09T04:32:05.736Z,1009.08
2017-08-09T04:33:05.762Z,1009.1
2017-08-09T04:35:05.824Z,1009.13
2017-08-09T04:36:05.838Z,1009.13
2017-08-09T04:37:05.858Z,1009.14
2017-08-09T04:38:05.888Z,1009.15
2017-08-09T04:39:05.917Z,1009.22
2017-08-09T04:40:05.938Z,1009.24
2017-08-09T04:41:05.965Z,1009.24
2017-08-09T04:42:05.989Z,1009.28
2017-08-09T04:43:06.015Z,1009.31
2017-08-09T04:44:06.039Z,1009.31
2017-08-09T04:45:06.066Z,1009.31
2017-08-09T04:46:06.090Z,1009.32
2017-08-09T04:47:06.117Z,1009.33
2017-08-09T04:48:06.141Z,1009.33
2017-08-09T04:50:06.194Z,1009.36
2017-08-09T04:51:06.220Z,1009.32
2017-08-09T04:52:06.245Z,1009.35
2017-08-09T04:53:06.269Z,1009.32
2017-08-09T04:54:06.294Z,1009.38
2017-08-09T04:55:06.324Z,1009.47
2017-08-09T04:56:06.349Z,1009.43
2017-08-09T04:57:06.369Z,1009.46
2017-08-09T04:58:06.397Z,1009.46
2017-08-09T04:59:06.421Z,1009.45
2017-08-09T05:00:06.448Z,1009.45
2017-08-09T05:01:06.474Z,1009.41
2017-08-09T05:02:06.499Z,1009.46
2017-08-09T05:03:06.525Z,1009.42
2017-08-09T05:04:06.569Z,1009.48
2017-08-09T05:05:06.576Z,1009.53
2017-08-09T05:06:06.599Z,1009.6
2017-08-09T05:07:06.628Z,1009.64
2017-08-09T05:08:06.652Z,1009.72
2017-08-09T05:09:06.679Z,1009.73
2017-08-09T05:10:06.706Z,1009.66
2017-08-09T05:11:06.738Z,1009.72
2017-08-09T05:12:06.760Z,1009.7
2017-08-09T05:13:06.783Z,1009.78
2017-08-09T05:14:06.815Z,1009.83
2017-08-09T05:15:06.841Z,1009.93
2017-08-09T05:16:06.869Z,1009.99
2017-08-09T05:17:06.894Z,1010.06
2017-08-09T05:18:06.922Z,1010.1
2017-08-09T05:19:06.954Z,1010.17
2017-08-09T05:20:06.980Z,1010.19
2017-08-09T05:22:07.037Z,1010.3
2017-08-09T05:23:07.073Z,1010.28
2017-08-09T05:24:07.101Z,1010.31
2017-08-09T05:25:07.134Z,1010.26
2017-08-09T05:26:07.164Z,1010.31
2017-08-09T05:27:07.195Z,1010.3
2017-08-09T05:28:07.226Z,1010.24
2017-08-09T05:29:07.265Z,1010.24
2017-08-09T05:30:07.293Z,1010.23
2017-08-09T05:31:07.324Z,1010.17
2017-08-09T05:32:07.354Z,1009.88
2017-08-09T05:33:07.388Z,1010.14
2017-08-09T05:34:07.421Z,1010.23
2017-08-09T05:35:07.457Z,1010.27
2017-08-09T05:36:07.486Z,1010.26
2017-08-09T05:38:07.555Z,1010.3
2017-08-09T05:39:07.587Z,1010.29
2017-08-09T05:40:07.622Z,1010.31
2017-08-09T05:41:07.656Z,1010.26
2017-08-09T05:42:07.686Z,1010.33
2017-08-09T05:43:07.723Z,1009.93
2017-08-09T05:44:07.758Z,1009.91
2017-08-09T05:45:07.789Z,1010.37
2017-08-09T05:46:07.826Z,1010.41
2017-08-09T05:47:07.861Z,1010.41
2017-08-09T05:48:07.896Z,1010.43
2017-08-09T05:49:07.930Z,1010.4
2017-08-09T05:50:07.964Z,1010.41
2017-08-09T05:51:08.000Z,1010.48
2017-08-09T05:52:08.032Z,1010.47
2017-08-09T05:54:08.102Z,1010.55
2017-08-09T05:55:08.136Z,1010.58
2017-08-09T05:56:08.167Z,1010.63
2017-08-09T05:57:08.205Z,1010.65
2017-08-09T05:58:08.244Z,1010.77
2017-08-09T05:59:08.282Z,1010.22
2017-08-09T06:00:08.313Z,1010.75
2017-08-09T06:01:08.351Z,1010.79
2017-08-09T06:02:08.383Z,1010.81
2017-08-09T06:03:08.422Z,1010.8
2017-08-09T06:04:08.449Z,1010.82
2017-08-09T06:05:08.489Z,1010.8
2017-08-09T06:06:08.525Z,1010.73
2017-08-09T06:07:08.560Z,1010.78
2017-08-09T06:08:08.593Z,1010.81
2017-08-09T06:10:08.668Z,1010.87
2017-08-09T06:11:08.706Z,1010.94
2017-08-09T06:12:08.740Z,1011
2017-08-09T06:13:08.774Z,1011.11
2017-08-09T06:14:08.813Z,1011.07
2017-08-09T06:15:08.852Z,1011.1
2017-08-09T06:16:08.885Z,1011.2
2017-08-09T06:17:08.917Z,1011.13
2017-08-09T06:18:08.959Z,1011.15
2017-08-09T06:19:08.999Z,1011.12
2017-08-09T06:20:09.028Z,1011.08
2017-08-09T06:21:09.069Z,1011.15
2017-08-09T06:22:09.104Z,1011.15
2017-08-09T06:23:09.140Z,1011.2
2017-08-09T06:25:09.216Z,1011.28
2017-08-09T06:26:09.253Z,1011.27
2017-08-09T06:27:09.290Z,1011.31
2017-08-09T06:28:09.329Z,1011.35
2017-08-09T06:29:09.362Z,1011.39
2017-08-09T06:30:09.403Z,1011.4
2017-08-09T06:31:09.441Z,1011.48
2017-08-09T06:32:09.475Z,1011.48
2017-08-09T06:33:09.516Z,1011.44
2017-08-09T06:34:09.552Z,1011.43
2017-08-09T06:35:09.589Z,1011.56
2017-08-09T06:36:09.623Z,1011.65
2017-08-09T06:37:09.662Z,1011.72
2017-08-09T06:38:09.699Z,1011.74
2017-08-09T06:39:09.737Z,1011.66
2017-08-09T06:40:09.776Z,1011.55
2017-08-09T06:41:09.813Z,1010.6
2017-08-09T06:42:09.851Z,1010.6
2017-08-09T06:43:09.889Z,1012.05
2017-08-09T06:44:09.924Z,1010.95
2017-08-09T06:45:09.962Z,1011.45
2017-08-09T06:46:10.001Z,1012.09
2017-08-09T06:47:10.036Z,1012.12
2017-08-09T06:48:10.071Z,1012.21
2017-08-09T06:49:10.108Z,1012.32
2017-08-09T06:50:10.142Z,1012.34
2017-08-09T06:51:10.181Z,1012.44
2017-08-09T06:52:10.219Z,1012.46
2017-08-09T06:53:10.257Z,1012.36
2017-08-09T06:54:10.290Z,1012.38
2017-08-09T06:55:10.329Z,1012.38
2017-08-09T06:57:10.406Z,1012.48
2017-08-09T06:58:10.440Z,1012.4
2017-08-09T06:59:10.477Z,1012.48
2017-08-09T07:00:10.514Z,1012.24
2017-08-09T07:01:10.555Z,1012.03
2017-08-09T07:02:10.595Z,1012.07
2017-08-09T07:03:10.629Z,1012.06
2017-08-09T07:04:10.665Z,1011.92
2017-08-09T07:05:10.704Z,1011.94
2017-08-09T07:06:10.743Z,1011.94
2017-08-09T07:07:10.777Z,1011.88
2017-08-09T07:08:10.816Z,1011.71
2017-08-09T07:09:10.855Z,1011.74
2017-08-09T07:10:10.889Z,1011.66
2017-08-09T07:11:10.929Z,1011.68
2017-08-09T07:13:11.002Z,1011.74
2017-08-09T07:14:11.037Z,1011.85
2017-08-09T07:15:11.076Z,1011.99
2017-08-09T07:16:11.113Z,1012.02
2017-08-09T07:17:11.149Z,1012.04
2017-08-09T07:18:11.186Z,1011.82
2017-08-09T07:19:11.222Z,1011.73
2017-08-09T07:20:11.257Z,1011.58
2017-08-09T07:21:11.297Z,1011.52
2017-08-09T07:22:11.328Z,1011.62
2017-08-09T07:23:11.369Z,1011.69
2017-08-09T07:24:11.406Z,1011.86
2017-08-09T07:25:11.441Z,1011.92
2017-08-09T07:26:11.480Z,1011.82
2017-08-09T07:27:11.513Z,1011.83
2017-08-09T07:29:11.585Z,1011.42
2017-08-09T07:30:11.624Z,1011.57
2017-08-09T07:31:11.660Z,1011.6
2017-08-09T07:32:11.698Z,1011.53
2017-08-09T07:33:11.733Z,1011.58
2017-08-09T07:34:11.768Z,1011.63
2017-08-09T07:35:11.803Z,1011.41
2017-08-09T07:36:11.836Z,1011.36
2017-08-09T07:37:11.878Z,1011.28
2017-08-09T07:38:11.913Z,1011.22
2017-08-09T07:39:11.948Z,1011.22
2017-08-09T07:40:11.983Z,1011.22
2017-08-09T07:41:12.016Z,1011.21
2017-08-09T07:42:12.057Z,1011.29
2017-08-09T07:43:12.089Z,1011.55
2017-08-09T07:45:12.164Z,1011.33
2017-08-09T07:46:12.197Z,1011.57
2017-08-09T07:47:12.232Z,1011.51
2017-08-09T07:48:12.263Z,1011.49
2017-08-09T07:49:12.298Z,1011.46
2017-08-09T07:50:12.334Z,1011.32
2017-08-09T07:51:12.370Z,1011.3
2017-08-09T07:52:12.402Z,1011.3
2017-08-09T07:53:12.440Z,1011.34
2017-08-09T07:54:12.469Z,1011.5
2017-08-09T07:55:12.509Z,1011.62
2017-08-09T07:56:12.546Z,1011.48
2017-08-09T07:57:12.578Z,1011.48
2017-08-09T07:58:12.612Z,1011.55
2017-08-09T08:00:12.682Z,1011.54
2017-08-09T08:01:12.719Z,1011.63
2017-08-09T08:02:12.749Z,1011.65
2017-08-09T08:03:12.787Z,1011.71
2017-08-09T08:04:12.819Z,1011.74
2017-08-09T08:05:12.856Z,1011.8
2017-08-09T08:06:12.918Z,1011.84
2017-08-09T08:07:12.925Z,1011.88
2017-08-09T08:08:12.959Z,1011.85
2017-08-09T08:09:12.993Z,1011.83
2017-08-09T08:10:13.030Z,1011.78
2017-08-09T08:11:13.067Z,1011.77
2017-08-09T08:12:13.098Z,1011.74
2017-08-09T08:13:13.136Z,1011.71
2017-08-09T08:14:13.172Z,1011.83
2017-08-09T08:15:13.205Z,1011.79
2017-08-09T08:16:13.238Z,1011.78
2017-08-09T08:17:13.275Z,1011.84
2017-08-09T08:18:13.310Z,1011.86
2017-08-09T08:19:13.339Z,1011.77
2017-08-09T08:20:13.378Z,1011.73
2017-08-09T08:21:13.414Z,1011.75
2017-08-09T08:22:13.448Z,1011.71
2017-08-09T08:23:13.479Z,1011.71
2017-08-09T08:24:13.513Z,1011.73
2017-08-09T08:25:13.551Z,1011.86
2017-08-09T08:26:13.583Z,1011.91
2017-08-09T08:27:13.617Z,1011.82
2017-08-09T08:28:13.649Z,1011.79
2017-08-09T08:29:13.687Z,1011.74
2017-08-09T08:30:13.718Z,1011.72
2017-08-09T08:32:13.783Z,1011.76
2017-08-09T08:33:13.821Z,1011.71
2017-08-09T08:34:13.849Z,1011.76
2017-08-09T08:35:13.887Z,1011.76
2017-08-09T08:36:13.919Z,1011.77
2017-08-09T08:37:13.957Z,1011.75
2017-08-09T08:38:13.983Z,1011.74
2017-08-09T08:39:14.021Z,1011.77
2017-08-09T08:40:14.050Z,1011.74
2017-08-09T08:41:14.085Z,1011.73
2017-08-09T08:42:14.119Z,1011.74
2017-08-09T08:43:14.150Z,1011.77
2017-08-09T08:44:14.185Z,1011.83
2017-08-09T08:45:14.211Z,1011.87
2017-08-09T08:46:14.249Z,1011.9
2017-08-09T08:48:14.315Z,1011.91
2017-08-09T08:49:14.347Z,1011.97
2017-08-09T08:50:14.381Z,1012.07
2017-08-09T08:51:14.412Z,1012.03
2017-08-09T08:52:14.445Z,1012.01
2017-08-09T08:53:14.475Z,1012.04
2017-08-09T08:54:14.510Z,1012.06
2017-08-09T08:55:14.545Z,1011.95
2017-08-09T08:56:14.578Z,1012.09
2017-08-09T08:57:14.609Z,1012.08
2017-08-09T08:58:14.645Z,1012.12
2017-08-09T08:59:14.676Z,1012.11
2017-08-09T09:00:14.712Z,1012.11
2017-08-09T09:01:14.745Z,1012.12
2017-08-09T09:02:14.780Z,1012.15
2017-08-09T09:04:14.845Z,1012.07
2017-08-09T09:05:14.882Z,1012.06
2017-08-09T09:06:14.922Z,1012
2017-08-09T09:07:14.949Z,1011.99
2017-08-09T09:08:14.989Z,1011.98
2017-08-09T09:09:15.023Z,1012.05
2017-08-09T09:10:15.059Z,1012.04
2017-08-09T09:11:15.093Z,1012.04
2017-08-09T09:12:15.128Z,1012.03
2017-08-09T09:13:15.160Z,1012.04
2017-08-09T09:14:15.192Z,1012.03
2017-08-09T09:15:15.235Z,1012.03
2017-08-09T09:16:15.263Z,1012.02
2017-08-09T09:17:15.306Z,1011.99
2017-08-09T09:18:15.337Z,1011.99
2017-08-09T09:20:15.405Z,1011.96
2017-08-09T09:21:15.442Z,1011.98
2017-08-09T09:22:15.478Z,1011.99
2017-08-09T09:23:15.514Z,1011.99
2017-08-09T09:24:15.548Z,1012.01
2017-08-09T09:25:15.580Z,1012.01
2017-08-09T09:26:15.617Z,1011.99
2017-08-09T09:27:15.652Z,1011.99
2017-08-09T09:28:15.688Z,1012
2017-08-09T09:29:15.723Z,1011.99
2017-08-09T09:30:15.753Z,1011.95
2017-08-09T09:31:15.794Z,1011.99
2017-08-09T09:32:15.829Z,1011.98
2017-08-09T09:33:15.864Z,1012
2017-08-09T09:35:15.933Z,1011.97
2017-08-09T09:36:15.970Z,1011.97
2017-08-09T09:37:16.003Z,1011.94
2017-08-09T09:38:16.041Z,1012.01
2017-08-09T09:39:16.071Z,1011.98
2017-08-09T09:40:16.110Z,1011.98
2017-08-09T09:41:16.145Z,1011.95
2017-08-09T09:42:16.209Z,1012.01
2017-08-09T09:43:16.214Z,1012
2017-08-09T09:44:16.246Z,1011.98
2017-08-09T09:45:16.283Z,1012
2017-08-09T09:46:16.323Z,1011.95
2017-08-09T09:47:16.357Z,1011.97
2017-08-09T09:48:16.393Z,1011.99
2017-08-09T09:49:16.424Z,1011.99
2017-08-09T09:50:16.460Z,1012.03
2017-08-09T09:51:16.494Z,1012.01
2017-08-09T09:52:16.532Z,1011.92
2017-08-09T09:53:16.561Z,1012.01
2017-08-09T09:54:16.597Z,1011.97
2017-08-09T09:55:16.635Z,1011.98
2017-08-09T09:56:16.667Z,1012.02
2017-08-09T09:57:16.704Z,1012
2017-08-09T09:58:16.738Z,1011.97
2017-08-09T09:59:16.773Z,1012.01
2017-08-09T10:00:16.806Z,1011.98
2017-08-09T10:01:16.840Z,1011.94
2017-08-09T10:02:16.874Z,1011.91
2017-08-09T10:03:16.911Z,1011.93
2017-08-09T10:04:16.945Z,1011.95
2017-08-09T10:05:16.978Z,1011.99
2017-08-09T10:07:17.048Z,1012.02
2017-08-09T10:08:17.089Z,1011.99
2017-08-09T10:09:17.118Z,1011.98
2017-08-09T10:10:17.150Z,1011.93
2017-08-09T10:11:17.186Z,1011.98
2017-08-09T10:12:17.222Z,1011.99
2017-08-09T10:13:17.254Z,1011.92
2017-08-09T10:14:17.290Z,1011.92
2017-08-09T10:15:17.322Z,1011.93
2017-08-09T10:16:17.356Z,1011.99
2017-08-09T10:17:17.641Z,1011.95
2017-08-09T10:18:17.430Z,1012
2017-08-09T10:19:17.461Z,1011.96
2017-08-09T10:20:17.493Z,1011.98
2017-08-09T10:21:17.532Z,1011.94
2017-08-09T10:23:17.599Z,1011.99
2017-08-09T10:24:17.632Z,1011.95
2017-08-09T10:25:17.669Z,1011.91
2017-08-09T10:26:17.700Z,1011.95
2017-08-09T10:27:17.735Z,1011.99
2017-08-09T10:28:17.766Z,1011.97
2017-08-09T10:29:17.802Z,1011.98
2017-08-09T10:30:17.835Z,1011.94
2017-08-09T10:31:17.875Z,1011.92
2017-08-09T10:32:17.906Z,1011.98
2017-08-09T10:33:17.940Z,1011.95
2017-08-09T10:34:17.973Z,1012.02
2017-08-09T10:35:18.009Z,1012.01
2017-08-09T10:36:18.041Z,1011.96
2017-08-09T10:37:18.078Z,1011.95
2017-08-09T10:39:18.144Z,1012
2017-08-09T10:40:18.178Z,1011.97
2017-08-09T10:41:18.210Z,1011.96
2017-08-09T10:42:18.242Z,1011.97
2017-08-09T10:43:18.280Z,1011.94
2017-08-09T10:44:18.313Z,1011.93
2017-08-09T10:45:18.344Z,1011.94
2017-08-09T10:46:18.378Z,1011.94
2017-08-09T10:47:18.412Z,1011.97
2017-08-09T10:48:18.446Z,1011.95
2017-08-09T10:49:18.475Z,1011.93
2017-08-09T10:50:18.514Z,1011.94
2017-08-09T10:51:18.544Z,1011.97
2017-08-09T10:52:18.578Z,1011.93
2017-08-09T10:53:18.610Z,1011.98
2017-08-09T10:55:18.673Z,1011.98
2017-08-09T10:56:18.716Z,1011.96
2017-08-09T10:57:18.742Z,1011.96
2017-08-09T10:58:18.776Z,1011.99
2017-08-09T10:59:18.807Z,1011.95
2017-08-09T11:00:18.840Z,1011.92
2017-08-09T11:01:18.876Z,1011.94
2017-08-09T11:02:18.908Z,1011.95
2017-08-09T11:03:18.940Z,1011.96
2017-08-09T11:04:18.971Z,1011.96
2017-08-09T11:05:19.010Z,1011.97
2017-08-09T11:06:19.037Z,1011.95
2017-08-09T11:07:19.071Z,1011.96
2017-08-09T11:08:19.104Z,1011.97
2017-08-09T11:10:19.169Z,1012
2017-08-09T11:11:19.201Z,1011.94
2017-08-09T11:12:19.235Z,1011.92
2017-08-09T11:13:19.266Z,1011.94
2017-08-09T11:14:19.301Z,1011.98
2017-08-09T11:15:19.338Z,1011.94
2017-08-09T11:16:19.363Z,1011.95
2017-08-09T11:17:19.396Z,1011.92
2017-08-09T11:18:19.427Z,1011.93
2017-08-09T11:19:19.457Z,1011.88
2017-08-09T11:20:19.492Z,1011.87
2017-08-09T11:21:19.522Z,1011.9
2017-08-09T11:22:19.556Z,1011.92
2017-08-09T11:23:19.587Z,1011.9
2017-08-09T11:24:19.622Z,1011.88
2017-08-09T11:25:19.659Z,1011.89
2017-08-09T11:26:19.683Z,1011.87
2017-08-09T11:27:19.713Z,1011.92
2017-08-09T11:28:19.748Z,1011.91
2017-08-09T11:29:19.779Z,1011.86
2017-08-09T11:30:19.812Z,1011.92
2017-08-09T11:31:19.845Z,1011.93
2017-08-09T11:32:19.875Z,1011.95
2017-08-09T11:33:19.905Z,1011.92
2017-08-09T11:34:19.937Z,1011.88
2017-08-09T11:35:19.969Z,1011.94
2017-08-09T11:36:20.009Z,1011.92
2017-08-09T11:37:20.030Z,1011.88
2017-08-09T11:38:20.064Z,1011.91
2017-08-09T11:39:20.094Z,1011.92
2017-08-09T11:40:20.129Z,1011.9
2017-08-09T11:42:20.189Z,1011.94
2017-08-09T11:43:20.224Z,1011.9
2017-08-09T11:44:20.257Z,1011.86
2017-08-09T11:45:20.285Z,1011.85
2017-08-09T11:46:20.319Z,1011.85
2017-08-09T11:47:20.345Z,1011.83
2017-08-09T11:48:20.379Z,1011.83
2017-08-09T11:49:20.408Z,1011.91
2017-08-09T11:50:20.445Z,1011.92
2017-08-09T11:51:20.474Z,1011.91
2017-08-09T11:52:20.504Z,1011.9
2017-08-09T11:53:20.535Z,1011.92
2017-08-09T11:54:20.570Z,1011.9
2017-08-09T11:55:20.601Z,1011.92
2017-08-09T11:56:20.631Z,1011.95
2017-08-09T11:58:20.692Z,1011.91
2017-08-09T11:59:20.723Z,1011.89
2017-08-09T12:00:20.759Z,1011.86
2017-08-09T12:01:20.788Z,1011.84
2017-08-09T12:02:20.819Z,1011.85
2017-08-09T12:03:20.850Z,1011.79
2017-08-09T12:04:20.886Z,1011.86
2017-08-09T12:05:20.913Z,1011.84
2017-08-09T12:06:20.940Z,1011.75
2017-08-09T12:07:20.976Z,1011.77
2017-08-09T12:08:21.008Z,1011.76
2017-08-09T12:09:21.041Z,1011.8
2017-08-09T12:10:21.066Z,1011.75
2017-08-09T12:11:21.103Z,1011.81
2017-08-09T12:12:21.132Z,1011.78
2017-08-09T12:14:21.195Z,1011.77
2017-08-09T12:15:21.228Z,1011.74
2017-08-09T12:16:21.255Z,1011.72
2017-08-09T12:17:21.290Z,1011.65
2017-08-09T12:18:21.315Z,1011.67
2017-08-09T12:19:21.400Z,1011.66
2017-08-09T12:20:21.383Z,1011.63
2017-08-09T12:21:21.413Z,1011.63
2017-08-09T12:22:21.444Z,1011.56
2017-08-09T12:23:21.477Z,1011.57
2017-08-09T12:24:21.506Z,1011.53
2017-08-09T12:25:21.538Z,1011.56
2017-08-09T12:26:21.568Z,1011.59
2017-08-09T12:27:21.599Z,1011.59
2017-08-09T12:28:21.631Z,1011.62
2017-08-09T12:30:21.688Z,1011.63
2017-08-09T12:31:21.724Z,1011.61
2017-08-09T12:32:21.754Z,1011.64
2017-08-09T12:33:21.789Z,1011.61
2017-08-09T12:34:21.818Z,1011.57
2017-08-09T12:35:21.845Z,1011.67
2017-08-09T12:36:21.878Z,1011.62
2017-08-09T12:37:21.909Z,1011.56
2017-08-09T12:38:21.939Z,1011.53
2017-08-09T12:39:21.972Z,1011.52
2017-08-09T12:40:22.001Z,1011.51
2017-08-09T12:41:22.034Z,1011.53
2017-08-09T12:42:22.067Z,1011.46
2017-08-09T12:43:22.094Z,1011.49
2017-08-09T12:45:22.160Z,1011.51
2017-08-09T12:46:22.189Z,1011.49
2017-08-09T12:47:22.218Z,1011.51
2017-08-09T12:48:22.249Z,1011.47
2017-08-09T12:49:22.280Z,1011.48
2017-08-09T12:50:22.311Z,1011.48